Dati Storici

Data ora Umidita' aria (%) Temperatura aria (°C) Rad globale (W/m²) Gonioanemometro (°) Tacoanemometro (m/s) Pioggia (mm)
02-11-2012 08:10 97 % 7.427 22.645 353.247 0.923 0
02-11-2012 08:00 97.1 % 7.233 10.689 322.191 0.231 0
02-11-2012 07:50 97.3 % 7.349 5.554 1.256 0.341 0
02-11-2012 07:40 97.3 % 7.388 3.451 301.246 0.212 0
02-11-2012 07:30 97.2 % 7.452 1.895 319.08 0.905 0
02-11-2012 07:20 97.4 % 7.53 1.92 4.801 0.761 0
02-11-2012 07:10 97.2 % 7.406 1.793 337.035 0.951 0
02-11-2012 07:00 97.2 % 7.339 1.715 338.955 0.438 0
02-11-2012 06:50 97.1 % 7.364 1.92 13.576 1.211 0
02-11-2012 06:40 97 % 7.242 2.229 17.959 0.625 0
02-11-2012 06:30 96.9 % 7.152 2.657 24.662 0.231 0
02-11-2012 06:20 97 % 7.147 3.285 36.866 0.41 0
02-11-2012 06:10 97 % 7.096 2.746 229.197 0.506 0
02-11-2012 06:00 96.8 % 6.95 2.271 325.408 0.767 0
02-11-2012 05:50 96.7 % 6.949 2.207 16.161 0.883 0
02-11-2012 05:40 96.8 % 7.035 2.259 14.969 1.207 0
02-11-2012 05:30 96.9 % 7.129 2.374 22.431 0.836 0
02-11-2012 05:20 96.8 % 7.009 2.467 356.044 0.875 0
02-11-2012 05:10 96.7 % 6.877 2.66 25.681 1.679 0
02-11-2012 05:00 96.5 % 6.868 2.288 5.635 0.73 0

I dati sono presentati in modo automatico a scopo informativo. In seguito a verifica i dati possono subire modifiche o essere invalidati e non riportati negli archivi definitivi.